Washington Island, WI (54246)

4:52 AM CDT on August 30, 2014 (GMT -0500)
South Shore Drive | Change Station
CLOSE
Current Station
Personal Weather Station
Location: Washington Island, WI
Elevation: 604 ft
Nearby Weather Stations

Elev 604 ft 45.34 °N, 86.89 °W | Updated 1 minute ago

Rain
Rain
66.5 °F
Feels Like 66.5 °F
N
0.0
Wind Variable Wind from North
Gusts 6.0 mph

Today
High -- | Low -- °F
--% Chance of Precip.
Yesterday
High -- | Low -- °F
Precip. -- in
6:06 AM 7:28 PM
Waxing Crescent, 20% visible
Pressure 29.78 in
Visibility 2.5 miles
Clouds Few 800 ft
Scattered Clouds 6000 ft
Overcast 8000 ft
Dew Point 66 °F
Humidity 99%
Rainfall 0.11 in
Snow Depth Not available.
UV 0.0 out of 12
Pollen .20 out of 12
Air Quality Not available.
Flu Activity Not available.
METAR KESC 300935Z 00000KT 2 1/2SM FEW008 SCT060 OVC080 19/17 A2978 RMK AO1 P0014

More Conditions Fewer Conditions

Pressure 29.78 in
Visibility 2.5 miles
Clouds Few 800 ft
Scattered Clouds 6000 ft
Overcast 8000 ft
Dew Point 66 °F
Humidity 99%
Rainfall 0.11 in
Snow Depth Not available.
UV 0.0 out of 12
Pollen .20 out of 12
Air Quality Not available.
Flu Activity Not available.
METAR KESC 300935Z 00000KT 2 1/2SM FEW008 SCT060 OVC080 19/17 A2978 RMK AO1 P0014

More Conditions Fewer Conditions

10-Day Weather Forecast

Almanac

Astronomy

Aug. 30, 2014 Rise Set
Actual Time 6:06 AM CDT 7:28 PM CDT
Civil Twilight 5:36 AM CDT 7:59 PM CDT
Nautical Twilight 4:58 AM CDT 8:36 PM CDT
Astronomical Twilight 4:19 AM CDT 9:15 PM CDT
Moon 11:09 AM CDT 9:46 PM CDT
Length of Visible Light 14h 23m
Length of Day
13h 22m
Tomorrow will be 3m 3s shorter.
Waxing Crescent, 20% of the Moon is Illuminated
Today
Waxing Crescent
Sep 2
First Quarter
Sep 8
Full
Sep 15
Last Quarter
Sep 24
New

Today's Extremes

State Highs State Lows

Community

WunderPhotos

Upload Photos

1,748,475 photos uploaded!

Nearby

Snow Depth

Station Depth Elevation
No new snow has been reported.

Earthquake Activity

City Distance Mag. Time & Date
No recent earthquake activity has been reported nearby.
Minimum magnitude displayed is 2.5.

Coastal Water Temperatures

Place Temperature
Menominee, MI 72.0 °F

Nearby Weather Stations